createdAt,value
2023-05-06T00:01:22.690Z,101806.03
2023-05-06T00:03:49.397Z,101798.03
2023-05-06T00:06:16.038Z,101793.81
2023-05-06T00:08:42.382Z,101804.34
2023-05-06T00:11:08.753Z,101796.41
2023-05-06T00:13:35.192Z,101796.13
2023-05-06T00:16:01.659Z,101797.66
2023-05-06T00:18:28.043Z,101796.78
2023-05-06T00:20:54.419Z,101792.34
2023-05-06T00:23:20.827Z,101793.38
2023-05-06T00:25:47.258Z,101793.28
2023-05-06T00:28:13.642Z,101787.91
2023-05-06T00:30:40.023Z,101791.63
2023-05-06T00:33:06.600Z,101795.19
2023-05-06T00:35:32.968Z,101795.19
2023-05-06T00:38:11.703Z,101788.06
2023-05-06T00:40:38.521Z,101785.28
2023-05-06T00:43:05.486Z,101780.84
2023-05-06T00:45:32.650Z,101774.59
2023-05-06T00:47:59.581Z,101785.28
2023-05-06T00:50:28.337Z,101777.22
2023-05-06T00:52:56.774Z,101781.81
2023-05-06T00:55:23.252Z,101786.31
2023-05-06T00:57:50.467Z,101787.09
2023-05-06T01:00:17.349Z,101786.09
2023-05-06T01:02:47.457Z,101785.22
2023-05-06T01:05:17.649Z,101782.69
2023-05-06T01:07:47.575Z,101774.75
2023-05-06T01:10:20.047Z,101772.78
2023-05-06T01:12:50.548Z,101769.22
2023-05-06T01:15:38.714Z,101771.25
2023-05-06T01:18:10.718Z,101764.28
2023-05-06T01:20:38.348Z,101763.47
2023-05-06T01:23:13.620Z,101770.09
2023-05-06T01:25:40.691Z,101765.97
2023-05-06T01:28:10.425Z,101771.38
2023-05-06T01:30:48.785Z,101766.94
2023-05-06T01:33:23.203Z,101761.91
2023-05-06T01:36:03.633Z,101755.06
2023-05-06T01:38:53.259Z,101762.47
2023-05-06T01:41:21.291Z,101757.97
2023-05-06T01:43:49.347Z,101761.75
2023-05-06T01:46:19.100Z,101758.97
2023-05-06T01:48:46.953Z,101762.72
2023-05-06T01:51:13.368Z,101763.72
2023-05-06T01:53:39.716Z,101770.25
2023-05-06T01:56:06.887Z,101765.91
2023-05-06T01:58:33.288Z,101765.03
2023-05-06T02:00:59.662Z,101768.72
2023-05-06T02:03:26.824Z,101770.59
2023-05-06T02:05:53.302Z,101767.19
2023-05-06T02:08:19.837Z,101770.94
2023-05-06T02:10:46.235Z,101761.34
2023-05-06T02:13:12.667Z,101768.53
2023-05-06T02:15:39.083Z,101781.13
2023-05-06T02:18:05.641Z,101781.47
2023-05-06T02:20:32.058Z,101787.78
2023-05-06T02:22:58.440Z,101782.34
2023-05-06T02:25:24.848Z,101787.91
2023-05-06T02:27:51.243Z,101785.44
2023-05-06T02:30:17.649Z,101787.47
2023-05-06T02:32:44.214Z,101781.47
2023-05-06T02:35:11.016Z,101786.88
2023-05-06T02:37:37.573Z,101784.41
2023-05-06T02:40:06.296Z,101786.16
2023-05-06T02:42:34.624Z,101787.03
2023-05-06T02:45:01.161Z,101783.47
2023-05-06T02:47:27.601Z,101784.53
2023-05-06T02:49:54.020Z,101785.47
2023-05-06T02:52:20.485Z,101780.22
2023-05-06T02:54:46.869Z,101777.75
2023-05-06T02:57:13.317Z,101777.88
2023-05-06T02:59:39.671Z,101785.94
2023-05-06T03:02:06.018Z,101781.56
2023-05-06T03:04:32.535Z,101779.88
2023-05-06T03:06:59.290Z,101782.69
2023-05-06T03:09:25.744Z,101782.97
2023-05-06T03:11:52.188Z,101781.16
2023-05-06T03:14:18.683Z,101777.66
2023-05-06T03:16:45.091Z,101774.97
2023-05-06T03:19:11.490Z,101778.53
2023-05-06T03:21:38.228Z,101772.34
2023-05-06T03:24:04.965Z,101773.34
2023-05-06T03:26:31.344Z,101767.13
2023-05-06T03:28:57.736Z,101772.41
2023-05-06T03:31:24.139Z,101770.81
2023-05-06T03:33:50.492Z,101773.66
2023-05-06T03:36:16.876Z,101772.81
2023-05-06T03:38:43.262Z,101780.09
2023-05-06T03:41:09.824Z,101774.13
2023-05-06T03:43:36.263Z,101776.94
2023-05-06T03:46:03.131Z,101774.00
2023-05-06T03:48:29.638Z,101776.53
2023-05-06T03:50:56.089Z,101778.47
2023-05-06T03:53:22.538Z,101775.06
2023-05-06T03:55:48.958Z,101784.06
2023-05-06T03:58:16.170Z,101785.00
2023-05-06T04:00:42.528Z,101781.44
2023-05-06T04:03:09.444Z,101784.31
2023-05-06T04:05:36.223Z,101781.63
2023-05-06T04:08:02.737Z,101783.44
2023-05-06T04:10:29.254Z,101785.44
2023-05-06T04:12:55.784Z,101780.94
2023-05-06T04:15:23.168Z,101778.25
2023-05-06T04:17:49.671Z,101780.88
2023-05-06T04:20:16.243Z,101772.69
2023-05-06T04:22:42.563Z,101774.31
2023-05-06T04:25:09.705Z,101777.75
2023-05-06T04:27:36.289Z,101776.78
2023-05-06T04:30:02.652Z,101781.97
2023-05-06T04:32:29.044Z,101773.75
2023-05-06T04:34:56.688Z,101783.59
2023-05-06T04:37:23.288Z,101787.91
2023-05-06T04:39:49.771Z,101792.53
2023-05-06T04:42:16.748Z,101794.03
2023-05-06T04:44:43.517Z,101801.88
2023-05-06T04:47:09.951Z,101802.56
2023-05-06T04:49:36.627Z,101800.69
2023-05-06T04:52:03.401Z,101803.28
2023-05-06T04:54:29.780Z,101809.22
2023-05-06T04:56:56.223Z,101814.34
2023-05-06T04:59:22.563Z,101814.47
2023-05-06T05:01:49.068Z,101813.66
2023-05-06T05:04:15.549Z,101811.59
2023-05-06T05:06:42.102Z,101818.25
2023-05-06T05:09:09.324Z,101826.03
2023-05-06T05:11:38.064Z,101824.22
2023-05-06T05:14:04.595Z,101827.69
2023-05-06T05:16:31.156Z,101832.78
2023-05-06T05:18:57.561Z,101827.06
2023-05-06T05:21:23.946Z,101826.81
2023-05-06T05:23:50.273Z,101834.78
2023-05-06T05:26:16.822Z,101829.00
2023-05-06T05:28:44.146Z,101819.59
2023-05-06T05:31:10.972Z,101822.75
2023-05-06T05:33:37.408Z,101829.75
2023-05-06T05:36:04.680Z,101830.09
2023-05-06T05:38:31.078Z,101820.72
2023-05-06T05:40:57.481Z,101825.84
2023-05-06T05:43:25.959Z,101826.53
2023-05-06T05:45:52.593Z,101826.09
2023-05-06T05:48:18.971Z,101827.63
2023-05-06T05:50:46.110Z,101833.81
2023-05-06T05:53:12.542Z,101832.78
2023-05-06T05:55:38.882Z,101823.44
2023-05-06T05:58:05.292Z,101819.50
2023-05-06T06:00:31.756Z,101833.47
2023-05-06T06:02:58.503Z,101832.69
2023-05-06T06:05:24.999Z,101831.66
2023-05-06T06:07:51.361Z,101828.75
2023-05-06T06:10:17.754Z,101827.56
2023-05-06T06:12:44.680Z,101831.91
2023-05-06T06:15:11.812Z,101826.28
2023-05-06T06:17:38.494Z,101826.00
2023-05-06T06:20:05.904Z,101826.66
2023-05-06T06:22:32.269Z,101834.38
2023-05-06T06:24:58.673Z,101845.94
2023-05-06T06:27:25.188Z,101833.16
2023-05-06T06:29:51.592Z,101840.13
2023-05-06T06:32:18.199Z,101834.50
2023-05-06T06:34:44.602Z,101837.22
2023-05-06T06:37:12.845Z,101834.13
2023-05-06T06:39:39.247Z,101833.75
2023-05-06T06:42:06.920Z,101834.41
2023-05-06T06:44:33.996Z,101830.53
2023-05-06T06:47:00.342Z,101835.69
2023-05-06T06:49:27.183Z,101837.28
2023-05-06T06:51:53.602Z,101837.75
2023-05-06T06:54:20.103Z,101842.03
2023-05-06T06:56:46.431Z,101851.59
2023-05-06T06:59:12.828Z,101851.41
2023-05-06T07:01:41.400Z,101843.97
2023-05-06T07:04:07.881Z,101849.19
2023-05-06T07:06:34.338Z,101848.94
2023-05-06T07:09:00.694Z,101848.38
2023-05-06T07:11:27.075Z,101848.72
2023-05-06T07:13:53.442Z,101847.34
2023-05-06T07:16:19.865Z,101839.53
2023-05-06T07:18:46.396Z,101847.97
2023-05-06T07:21:12.914Z,101847.41
2023-05-06T07:23:39.254Z,101856.50
2023-05-06T07:26:05.791Z,101857.91
2023-05-06T07:28:32.141Z,101857.66
2023-05-06T07:30:58.543Z,101854.94
2023-05-06T07:33:24.967Z,101859.47
2023-05-06T07:35:53.680Z,101856.25
2023-05-06T07:38:23.952Z,101856.63
2023-05-06T07:40:51.490Z,101845.91
2023-05-06T07:43:17.904Z,101852.19
2023-05-06T07:45:44.621Z,101850.69
2023-05-06T07:48:11.080Z,101855.28
2023-05-06T07:50:37.541Z,101862.06
2023-05-06T07:53:04.142Z,101855.00
2023-05-06T07:55:32.011Z,101859.41
2023-05-06T07:57:59.159Z,101857.19
2023-05-06T08:00:25.592Z,101858.16
2023-05-06T08:02:52.061Z,101854.88
2023-05-06T08:05:18.787Z,101858.06
2023-05-06T08:07:45.194Z,101856.13
2023-05-06T08:10:11.587Z,101857.88
2023-05-06T08:12:38.143Z,101863.59
2023-05-06T08:15:05.202Z,101874.75
2023-05-06T08:17:31.635Z,101872.13
2023-05-06T08:19:58.005Z,101864.56
2023-05-06T08:22:24.375Z,101860.16
2023-05-06T08:24:50.945Z,101857.03
2023-05-06T08:27:17.369Z,101869.25
2023-05-06T08:29:43.730Z,101871.59
2023-05-06T08:32:10.142Z,101868.03
2023-05-06T08:34:36.710Z,101879.34
2023-05-06T08:37:03.250Z,101872.56
2023-05-06T08:39:30.793Z,101864.78
2023-05-06T08:41:59.249Z,101867.84
2023-05-06T08:44:25.773Z,101866.66
2023-05-06T08:46:52.238Z,101860.03
2023-05-06T08:49:18.658Z,101862.31
2023-05-06T08:51:45.855Z,101859.38
2023-05-06T08:54:13.279Z,101860.81
2023-05-06T08:56:45.007Z,101864.28
2023-05-06T08:59:12.165Z,101867.91
2023-05-06T09:01:38.811Z,101860.69
2023-05-06T09:04:07.364Z,101865.16
2023-05-06T09:06:34.213Z,101856.13
2023-05-06T09:09:00.605Z,101853.78
2023-05-06T09:11:31.976Z,101856.19
2023-05-06T09:14:15.933Z,101854.22
2023-05-06T09:16:47.449Z,101850.53
2023-05-06T09:19:14.734Z,101850.44
2023-05-06T09:21:43.009Z,101857.50
2023-05-06T09:24:10.884Z,101847.94
2023-05-06T09:26:38.859Z,101845.84
2023-05-06T09:29:06.249Z,101843.25
2023-05-06T09:31:33.153Z,101847.13
2023-05-06T09:34:00.901Z,101841.84
2023-05-06T09:36:28.277Z,101842.50
2023-05-06T09:38:55.710Z,101840.88
2023-05-06T09:41:25.175Z,101834.22
2023-05-06T09:43:55.684Z,101837.81
2023-05-06T09:46:23.285Z,101831.28
2023-05-06T09:48:54.202Z,101824.16
2023-05-06T09:51:21.064Z,101829.69
2023-05-06T09:53:48.626Z,101830.72
2023-05-06T09:56:16.136Z,101831.72
2023-05-06T09:58:43.062Z,101823.31
2023-05-06T10:01:09.945Z,101823.13
2023-05-06T10:03:36.704Z,101828.16
2023-05-06T10:06:06.205Z,101826.94
2023-05-06T10:08:34.169Z,101819.81
2023-05-06T10:11:01.715Z,101822.09
2023-05-06T10:13:28.271Z,101816.75
2023-05-06T10:15:55.207Z,101810.34
2023-05-06T10:18:22.335Z,101808.38
2023-05-06T10:20:53.494Z,101814.75
2023-05-06T10:23:35.220Z,101805.56
2023-05-06T10:26:07.710Z,101809.91
2023-05-06T10:28:42.419Z,101816.84
2023-05-06T10:31:12.846Z,101802.00
2023-05-06T10:33:48.465Z,101802.28
2023-05-06T10:36:22.765Z,101801.13
2023-05-06T10:38:55.086Z,101797.91
2023-05-06T10:41:22.784Z,101800.00
2023-05-06T10:43:56.572Z,101790.50
2023-05-06T10:46:24.643Z,101793.63
2023-05-06T10:49:10.989Z,101784.16
2023-05-06T10:51:47.987Z,101774.44
2023-05-06T10:54:20.315Z,101788.34
2023-05-06T10:56:49.823Z,101784.84
2023-05-06T10:59:26.472Z,101786.06
2023-05-06T11:02:08.800Z,101783.19
2023-05-06T11:04:35.484Z,101777.38
2023-05-06T11:07:07.574Z,101790.25
2023-05-06T11:09:33.944Z,101789.97
2023-05-06T11:12:05.002Z,101779.78
2023-05-06T11:14:35.688Z,101777.03
2023-05-06T11:17:07.741Z,101786.38
2023-05-06T11:19:38.329Z,101773.63
2023-05-06T11:22:06.938Z,101780.81
2023-05-06T11:24:41.880Z,101774.28
2023-05-06T11:27:09.715Z,101769.25
2023-05-06T11:29:37.062Z,101772.97
2023-05-06T11:32:05.304Z,101772.03
2023-05-06T11:34:32.865Z,101776.09
2023-05-06T11:37:04.378Z,101763.28
2023-05-06T11:39:36.704Z,101766.38
2023-05-06T11:42:07.238Z,101768.56
2023-05-06T11:44:39.010Z,101764.47
2023-05-06T11:47:07.823Z,101755.25
2023-05-06T11:49:37.989Z,101753.94
2023-05-06T11:52:05.127Z,101757.06
2023-05-06T11:54:35.934Z,101752.13
2023-05-06T11:57:03.485Z,101752.59
2023-05-06T11:59:32.558Z,101751.91
2023-05-06T12:02:03.261Z,101750.00
2023-05-06T12:04:46.210Z,101751.47
2023-05-06T12:07:14.732Z,101755.38
2023-05-06T12:09:47.668Z,101751.31
2023-05-06T12:12:19.948Z,101754.63
2023-05-06T12:14:47.362Z,101749.69
2023-05-06T12:17:15.455Z,101745.22
2023-05-06T12:19:41.949Z,101744.63
2023-05-06T12:22:21.906Z,101752.81
2023-05-06T12:24:49.203Z,101743.81
2023-05-06T12:27:34.955Z,101744.25
2023-05-06T12:30:02.870Z,101744.41
2023-05-06T12:32:29.375Z,101741.47
2023-05-06T12:34:56.513Z,101754.91
2023-05-06T12:37:29.461Z,101749.28
2023-05-06T12:40:07.795Z,101749.31
2023-05-06T12:42:34.318Z,101752.38
2023-05-06T12:45:13.278Z,101741.16
2023-05-06T12:47:39.696Z,101739.69
2023-05-06T12:50:06.704Z,101739.28
2023-05-06T12:52:33.384Z,101741.84
2023-05-06T12:55:01.570Z,101736.53
2023-05-06T12:57:27.950Z,101731.00
2023-05-06T12:59:56.238Z,101734.41
2023-05-06T13:02:22.712Z,101736.75
2023-05-06T13:04:49.449Z,101730.84
2023-05-06T13:07:15.954Z,101738.47
2023-05-06T13:09:42.334Z,101727.59
2023-05-06T13:12:08.705Z,101735.59
2023-05-06T13:14:36.853Z,101739.78
2023-05-06T13:17:06.693Z,101736.13
2023-05-06T13:19:33.737Z,101732.13
2023-05-06T13:22:01.215Z,101726.63
2023-05-06T13:24:28.128Z,101729.13
2023-05-06T13:26:56.243Z,101734.38
2023-05-06T13:29:23.515Z,101726.53
2023-05-06T13:31:50.034Z,101723.09
2023-05-06T13:34:16.543Z,101716.34
2023-05-06T13:36:43.810Z,101713.09
2023-05-06T13:39:10.202Z,101713.97
2023-05-06T13:41:36.592Z,101717.94
2023-05-06T13:44:03.526Z,101713.34
2023-05-06T13:46:30.976Z,101700.44
2023-05-06T13:48:57.456Z,101702.13
2023-05-06T13:51:27.577Z,101692.03
2023-05-06T13:53:53.936Z,101700.66
2023-05-06T13:56:21.466Z,101701.88
2023-05-06T13:58:47.826Z,101698.31
2023-05-06T14:01:14.590Z,101697.56
2023-05-06T14:03:41.036Z,101697.41
2023-05-06T14:06:08.767Z,101696.53
2023-05-06T14:08:35.221Z,101691.75
2023-05-06T14:11:01.896Z,101688.63
2023-05-06T14:13:31.102Z,101685.53
2023-05-06T14:15:57.821Z,101685.19
2023-05-06T14:18:26.498Z,101690.03
2023-05-06T14:20:53.471Z,101675.81
2023-05-06T14:23:19.919Z,101672.69
2023-05-06T14:25:46.247Z,101675.53
2023-05-06T14:28:12.964Z,101676.91
2023-05-06T14:30:39.702Z,101677.44
2023-05-06T14:33:06.617Z,101676.75
2023-05-06T14:35:33.037Z,101673.94
2023-05-06T14:37:59.387Z,101663.63
2023-05-06T14:40:25.970Z,101663.63
2023-05-06T14:42:53.509Z,101663.97
2023-05-06T14:45:21.034Z,101672.44
2023-05-06T14:47:47.367Z,101671.59
2023-05-06T14:50:13.992Z,101663.97
2023-05-06T14:52:41.349Z,101671.88
2023-05-06T14:55:09.608Z,101656.56
2023-05-06T14:57:36.505Z,101669.25
2023-05-06T15:00:10.217Z,101669.88
2023-05-06T15:02:38.126Z,101664.13
2023-05-06T15:05:05.059Z,101670.22
2023-05-06T15:07:31.540Z,101662.56
2023-05-06T15:09:57.981Z,101662.50
2023-05-06T15:12:24.362Z,101667.81
2023-05-06T15:14:50.836Z,101662.97
2023-05-06T15:17:17.854Z,101664.53
2023-05-06T15:19:44.254Z,101665.81
2023-05-06T15:22:10.677Z,101667.94
2023-05-06T15:24:37.425Z,101667.53
2023-05-06T15:27:03.905Z,101674.13
2023-05-06T15:29:30.473Z,101664.06
2023-05-06T15:31:56.963Z,101656.31
2023-05-06T15:34:24.486Z,101664.22
2023-05-06T15:36:53.224Z,101659.94
2023-05-06T15:39:20.051Z,101666.81
2023-05-06T15:41:47.132Z,101662.78
2023-05-06T15:46:42.487Z,101658.09
2023-05-06T15:49:42.619Z,101672.50
2023-05-06T15:51:59.109Z,101664.53
2023-05-06T15:54:27.067Z,101660.53
2023-05-06T15:56:53.506Z,101665.44
2023-05-06T15:59:19.941Z,101663.13
2023-05-06T16:04:16.419Z,101669.31
2023-05-06T16:06:42.917Z,101665.19
2023-05-06T16:09:10.394Z,101666.06
2023-05-06T16:11:36.764Z,101670.09
2023-05-06T16:14:03.837Z,101661.16
2023-05-06T16:16:30.312Z,101662.63
2023-05-06T16:18:56.727Z,101669.13
2023-05-06T16:21:23.223Z,101666.53
2023-05-06T16:23:49.606Z,101671.84
2023-05-06T16:26:16.693Z,101672.59
2023-05-06T16:28:43.340Z,101672.75
2023-05-06T16:31:10.304Z,101666.56
2023-05-06T16:33:36.845Z,101662.88
2023-05-06T16:36:03.997Z,101671.34
2023-05-06T16:38:30.584Z,101668.75
2023-05-06T16:40:57.043Z,101664.38
2023-05-06T16:43:23.490Z,101658.50
2023-05-06T16:45:49.920Z,101661.66
2023-05-06T16:48:16.621Z,101668.28
2023-05-06T16:50:43.107Z,101667.72
2023-05-06T16:53:09.598Z,101670.47
2023-05-06T16:55:36.445Z,101666.72
2023-05-06T16:58:03.679Z,101666.00
2023-05-06T17:00:30.386Z,101666.56
2023-05-06T17:02:56.861Z,101675.06
2023-05-06T17:05:23.591Z,101675.31
2023-05-06T17:07:50.723Z,101672.44
2023-05-06T17:10:17.494Z,101673.16
2023-05-06T17:12:44.008Z,101667.97
2023-05-06T17:15:11.235Z,101669.50
2023-05-06T17:17:37.696Z,101673.81
2023-05-06T17:20:05.231Z,101669.78
2023-05-06T17:22:31.750Z,101671.34
2023-05-06T17:24:58.129Z,101673.03
2023-05-06T17:27:24.563Z,101664.81
2023-05-06T17:29:51.567Z,101671.44
2023-05-06T17:32:19.675Z,101672.72
2023-05-06T17:34:46.247Z,101669.25
2023-05-06T17:37:12.752Z,101664.03
2023-05-06T17:39:39.390Z,101663.53
2023-05-06T17:42:05.830Z,101678.78
2023-05-06T17:44:33.061Z,101688.41
2023-05-06T17:46:59.634Z,101691.81
2023-05-06T17:49:26.078Z,101696.56
2023-05-06T17:51:52.673Z,101699.88
2023-05-06T17:54:19.094Z,101695.16
2023-05-06T17:56:50.305Z,101710.06
2023-05-06T17:59:18.532Z,101712.03
2023-05-06T18:01:45.243Z,101715.03
2023-05-06T18:04:12.551Z,101720.34
2023-05-06T18:06:41.405Z,101721.84
2023-05-06T18:09:08.440Z,101724.34
2023-05-06T18:11:35.178Z,101735.75
2023-05-06T18:14:01.694Z,101730.75
2023-05-06T18:16:28.242Z,101731.31
2023-05-06T18:18:54.702Z,101732.66
2023-05-06T18:21:21.166Z,101732.47
2023-05-06T18:23:48.475Z,101733.69
2023-05-06T18:26:21.396Z,101736.06
2023-05-06T18:28:54.579Z,101735.19
2023-05-06T18:31:20.994Z,101735.53
2023-05-06T18:33:47.354Z,101732.47
2023-05-06T18:36:13.886Z,101741.50
2023-05-06T18:38:40.375Z,101742.59
2023-05-06T18:41:07.901Z,101742.59
2023-05-06T18:43:34.569Z,101737.63
2023-05-06T18:46:00.986Z,101749.13
2023-05-06T18:48:28.018Z,101741.53
2023-05-06T18:50:54.413Z,101743.63
2023-05-06T18:53:21.186Z,101739.28
2023-05-06T18:55:47.594Z,101735.88
2023-05-06T18:58:13.956Z,101744.25
2023-05-06T19:00:40.877Z,101739.50
2023-05-06T19:03:07.395Z,101745.34
2023-05-06T19:05:33.885Z,101754.16
2023-05-06T19:08:00.252Z,101760.34
2023-05-06T19:10:26.616Z,101765.56
2023-05-06T19:12:53.089Z,101757.41
2023-05-06T19:15:19.606Z,101761.66
2023-05-06T19:17:46.255Z,101766.97
2023-05-06T19:20:14.259Z,101770.56
2023-05-06T19:22:41.122Z,101760.25
2023-05-06T19:25:08.354Z,101764.81
2023-05-06T19:27:34.902Z,101768.06
2023-05-06T19:30:01.271Z,101770.56
2023-05-06T19:32:27.677Z,101771.66
2023-05-06T19:34:54.121Z,101781.31
2023-05-06T19:37:20.569Z,101778.94
2023-05-06T19:39:47.573Z,101779.25
2023-05-06T19:42:14.076Z,101776.53
2023-05-06T19:44:40.878Z,101780.66
2023-05-06T19:47:07.344Z,101772.50
2023-05-06T19:49:33.734Z,101777.94
2023-05-06T19:52:00.207Z,101775.34
2023-05-06T19:54:26.973Z,101772.75
2023-05-06T19:56:53.403Z,101780.34
2023-05-06T19:59:19.830Z,101772.19
2023-05-06T20:01:46.224Z,101773.41
2023-05-06T20:04:12.665Z,101778.63
2023-05-06T20:06:39.044Z,101778.63
2023-05-06T20:09:05.400Z,101771.88
2023-05-06T20:11:31.788Z,101781.97
2023-05-06T20:13:58.121Z,101779.34
2023-05-06T20:16:24.537Z,101774.56
2023-05-06T20:18:53.005Z,101778.91
2023-05-06T20:21:19.368Z,101780.53
2023-05-06T20:23:45.753Z,101771.75
2023-05-06T20:26:14.812Z,101768.59
2023-05-06T20:28:41.209Z,101775.00
2023-05-06T20:31:07.720Z,101769.69
2023-05-06T20:33:34.139Z,101768.72
2023-05-06T20:36:00.490Z,101766.22
2023-05-06T20:38:27.212Z,101763.91
2023-05-06T20:40:53.717Z,101779.63
2023-05-06T20:43:20.102Z,101777.66
2023-05-06T20:45:46.479Z,101777.53
2023-05-06T20:48:14.822Z,101776.34
2023-05-06T20:50:41.634Z,101770.13
2023-05-06T20:53:08.021Z,101779.38
2023-05-06T20:55:34.464Z,101776.75
2023-05-06T20:58:00.856Z,101777.53
2023-05-06T21:00:27.227Z,101780.22
2023-05-06T21:02:53.689Z,101781.88
2023-05-06T21:05:20.219Z,101778.38
2023-05-06T21:07:46.578Z,101779.03
2023-05-06T21:10:13.177Z,101775.22
2023-05-06T21:12:39.655Z,101768.72
2023-05-06T21:15:06.784Z,101767.97
2023-05-06T21:17:33.199Z,101767.97
2023-05-06T21:19:59.645Z,101763.28
2023-05-06T21:22:26.256Z,101758.41
2023-05-06T21:24:52.753Z,101756.78
2023-05-06T21:27:19.164Z,101756.94
2023-05-06T21:29:45.724Z,101757.91
2023-05-06T21:32:12.203Z,101752.03
2023-05-06T21:34:38.815Z,101754.00
2023-05-06T21:37:05.234Z,101742.50
2023-05-06T21:39:31.675Z,101746.38
2023-05-06T21:41:58.108Z,101747.88
2023-05-06T21:44:24.417Z,101750.50
2023-05-06T21:46:50.906Z,101751.25
2023-05-06T21:49:17.705Z,101763.72
2023-05-06T21:51:44.222Z,101759.50
2023-05-06T21:54:10.622Z,101765.56
2023-05-06T21:56:36.941Z,101771.22
2023-05-06T21:59:03.413Z,101765.88
2023-05-06T22:01:29.840Z,101767.41
2023-05-06T22:03:56.387Z,101766.66
2023-05-06T22:06:23.150Z,101764.16
2023-05-06T22:08:49.545Z,101763.50
2023-05-06T22:11:16.395Z,101766.28
2023-05-06T22:13:42.754Z,101766.28
2023-05-06T22:16:09.674Z,101774.63
2023-05-06T22:18:41.056Z,101768.31
2023-05-06T22:21:08.509Z,101772.00
2023-05-06T22:23:35.141Z,101769.59
2023-05-06T22:26:01.503Z,101774.34
2023-05-06T22:28:27.945Z,101774.34
2023-05-06T22:30:54.319Z,101774.34
2023-05-06T22:33:20.654Z,101767.00
2023-05-06T22:35:47.066Z,101771.09
2023-05-06T22:38:13.419Z,101763.66
2023-05-06T22:40:39.845Z,101762.69
2023-05-06T22:43:06.202Z,101767.25
2023-05-06T22:45:32.640Z,101772.38
2023-05-06T22:47:59.126Z,101773.34
2023-05-06T22:50:25.575Z,101782.13
2023-05-06T22:52:51.974Z,101784.75
2023-05-06T22:55:18.446Z,101779.41
2023-05-06T22:57:44.919Z,101784.75
2023-05-06T23:00:12.855Z,101777.47
2023-05-06T23:02:39.722Z,101769.56
2023-05-06T23:05:06.530Z,101774.00
2023-05-06T23:07:32.984Z,101780.09
2023-05-06T23:09:59.649Z,101786.28
2023-05-06T23:12:26.106Z,101776.59
2023-05-06T23:14:52.535Z,101782.13
2023-05-06T23:17:18.927Z,101775.19
2023-05-06T23:19:45.950Z,101776.16
2023-05-06T23:22:12.410Z,101787.00
2023-05-06T23:24:39.022Z,101785.34
2023-05-06T23:27:05.413Z,101781.84
2023-05-06T23:29:31.834Z,101782.72
2023-05-06T23:31:58.253Z,101783.78
2023-05-06T23:34:24.842Z,101785.69
2023-05-06T23:36:51.490Z,101785.22
2023-05-06T23:39:17.912Z,101778.47
2023-05-06T23:41:44.311Z,101775.84
2023-05-06T23:44:10.650Z,101782.03
2023-05-06T23:46:37.132Z,101784.75
2023-05-06T23:49:04.162Z,101786.59
2023-05-06T23:51:31.851Z,101788.22
2023-05-06T23:53:58.351Z,101783.97
2023-05-06T23:56:24.677Z,101781.28
2023-05-06T23:58:51.029Z,101775.47
